createdAt,value
2017-12-31T00:00:22.537Z,4.90
2017-12-31T00:02:49.204Z,5.00
2017-12-31T00:05:15.844Z,3.93
2017-12-31T00:07:42.499Z,2.57
2017-12-31T00:10:09.314Z,3.67
2017-12-31T00:12:35.910Z,1.97
2017-12-31T00:15:02.558Z,4.27
2017-12-31T00:17:29.243Z,4.00
2017-12-31T00:19:55.850Z,5.63
2017-12-31T00:22:22.469Z,4.10
2017-12-31T00:24:49.110Z,3.73
2017-12-31T00:27:15.770Z,4.17
2017-12-31T00:29:42.379Z,4.90
2017-12-31T00:32:09.005Z,4.17
2017-12-31T00:34:36.143Z,3.33
2017-12-31T00:37:02.743Z,3.70
2017-12-31T00:39:29.614Z,3.80
2017-12-31T00:41:56.231Z,3.60
2017-12-31T00:44:22.854Z,3.97
2017-12-31T00:46:49.502Z,6.53
2017-12-31T00:49:17.100Z,16.33
2017-12-31T00:51:43.799Z,5.17
2017-12-31T00:54:10.405Z,3.07
2017-12-31T00:56:37.048Z,4.00
2017-12-31T00:59:03.644Z,6.70
2017-12-31T01:01:30.290Z,5.93
2017-12-31T01:03:56.926Z,4.80
2017-12-31T01:06:23.565Z,3.60
2017-12-31T01:08:50.171Z,3.90
2017-12-31T01:11:16.805Z,5.30
2017-12-31T01:13:43.410Z,5.63
2017-12-31T01:16:10.054Z,6.40
2017-12-31T01:18:36.662Z,4.83
2017-12-31T01:21:03.279Z,5.00
2017-12-31T01:23:29.968Z,4.83
2017-12-31T01:25:56.575Z,6.73
2017-12-31T01:28:23.209Z,4.70
2017-12-31T01:30:49.793Z,3.80
2017-12-31T01:33:17.178Z,3.70
2017-12-31T01:35:43.786Z,3.80
2017-12-31T01:38:10.390Z,4.20
2017-12-31T01:40:37.042Z,4.50
2017-12-31T01:43:03.665Z,4.10
2017-12-31T01:45:30.270Z,4.70
2017-12-31T01:47:56.907Z,5.10
2017-12-31T01:50:23.549Z,3.67
2017-12-31T01:52:50.168Z,5.07
2017-12-31T01:55:16.806Z,3.13
2017-12-31T01:57:43.414Z,4.80
2017-12-31T02:00:10.045Z,3.97
2017-12-31T02:02:36.666Z,5.30
2017-12-31T02:05:03.275Z,3.57
2017-12-31T02:07:29.909Z,3.87
2017-12-31T02:09:56.546Z,3.87
2017-12-31T02:12:23.166Z,4.33
2017-12-31T02:14:49.765Z,4.20
2017-12-31T02:17:16.401Z,4.33
2017-12-31T02:19:43.033Z,2.37
2017-12-31T02:22:09.661Z,3.83
2017-12-31T02:24:36.266Z,4.00
2017-12-31T02:27:02.910Z,4.20
2017-12-31T02:29:29.502Z,2.00
2017-12-31T02:31:56.106Z,5.73
2017-12-31T02:34:22.750Z,6.80
2017-12-31T02:36:49.343Z,4.87
2017-12-31T02:39:15.963Z,2.80
2017-12-31T02:41:42.583Z,3.27
2017-12-31T02:44:09.201Z,2.10
2017-12-31T02:46:35.846Z,4.20
2017-12-31T02:49:02.489Z,3.53
2017-12-31T02:51:29.119Z,2.10
2017-12-31T02:53:55.743Z,2.43
2017-12-31T02:56:22.364Z,2.77
2017-12-31T02:58:48.995Z,4.27
2017-12-31T03:01:15.711Z,3.97
2017-12-31T03:03:42.522Z,2.93
2017-12-31T03:06:09.122Z,4.40
2017-12-31T03:08:35.755Z,4.17
2017-12-31T03:11:02.366Z,2.57
2017-12-31T03:13:28.986Z,2.30
2017-12-31T03:15:55.590Z,1.43
2017-12-31T03:18:22.240Z,3.47
2017-12-31T03:20:48.854Z,1.70
2017-12-31T03:23:15.465Z,2.43
2017-12-31T03:25:42.110Z,2.77
2017-12-31T03:28:08.739Z,2.30
2017-12-31T03:30:35.365Z,2.13
2017-12-31T03:33:01.969Z,1.73
2017-12-31T03:35:28.593Z,3.37
2017-12-31T03:37:55.213Z,1.47
2017-12-31T03:40:21.834Z,2.50
2017-12-31T03:42:48.449Z,1.80
2017-12-31T03:45:15.049Z,2.00
2017-12-31T03:47:41.686Z,1.77
2017-12-31T03:50:08.325Z,2.23
2017-12-31T03:52:34.931Z,2.13
2017-12-31T03:55:01.535Z,1.73
2017-12-31T03:57:28.180Z,2.03
2017-12-31T03:59:54.769Z,2.33
2017-12-31T04:02:21.364Z,2.37
2017-12-31T04:04:48.002Z,1.40
2017-12-31T04:07:14.605Z,4.37
2017-12-31T04:09:41.198Z,1.67
2017-12-31T04:12:07.842Z,1.93
2017-12-31T04:14:34.516Z,2.33
2017-12-31T04:17:01.110Z,2.60
2017-12-31T04:19:27.702Z,3.00
2017-12-31T04:21:54.355Z,1.27
2017-12-31T04:24:20.961Z,2.03
2017-12-31T04:26:47.589Z,2.60
2017-12-31T04:29:14.198Z,2.70
2017-12-31T04:31:40.830Z,1.43
2017-12-31T04:34:07.503Z,2.13
2017-12-31T04:36:34.105Z,2.27
2017-12-31T04:39:00.733Z,3.00
2017-12-31T04:41:27.338Z,2.03
2017-12-31T04:43:53.953Z,2.57
2017-12-31T04:46:20.562Z,2.63
2017-12-31T04:48:47.241Z,2.63
2017-12-31T04:51:13.906Z,2.13
2017-12-31T04:53:40.526Z,2.10
2017-12-31T04:56:07.150Z,3.00
2017-12-31T04:58:33.809Z,2.23
2017-12-31T05:01:00.421Z,1.53
2017-12-31T05:03:27.038Z,2.23
2017-12-31T05:05:53.653Z,2.60
2017-12-31T05:08:20.258Z,2.87
2017-12-31T05:10:46.906Z,3.40
2017-12-31T05:13:13.501Z,2.70
2017-12-31T05:15:40.134Z,2.20
2017-12-31T05:18:06.897Z,2.53
2017-12-31T05:20:33.525Z,2.43
2017-12-31T05:23:00.142Z,2.40
2017-12-31T05:25:26.743Z,1.70
2017-12-31T05:27:53.369Z,1.40
2017-12-31T05:30:19.978Z,2.40
2017-12-31T05:32:46.575Z,2.37
2017-12-31T05:35:13.194Z,1.83
2017-12-31T05:37:39.823Z,2.60
2017-12-31T05:40:06.437Z,2.53
2017-12-31T05:42:33.033Z,3.33
2017-12-31T05:44:59.662Z,1.60
2017-12-31T05:47:26.262Z,1.73
2017-12-31T05:49:52.878Z,1.53
2017-12-31T05:52:19.498Z,2.50
2017-12-31T05:54:46.134Z,3.07
2017-12-31T05:57:12.733Z,2.03
2017-12-31T05:59:39.339Z,2.70
2017-12-31T06:02:05.958Z,2.63
2017-12-31T06:04:32.714Z,4.17
2017-12-31T06:06:59.323Z,2.37
2017-12-31T06:09:25.919Z,2.00
2017-12-31T06:11:52.552Z,2.60
2017-12-31T06:14:19.251Z,2.90
2017-12-31T06:16:45.986Z,2.07
2017-12-31T06:19:13.022Z,2.07
2017-12-31T06:21:39.638Z,3.50
2017-12-31T06:24:06.225Z,2.47
2017-12-31T06:26:32.849Z,1.80
2017-12-31T06:28:59.490Z,2.37
2017-12-31T06:31:26.114Z,2.33
2017-12-31T06:33:52.713Z,1.67
2017-12-31T06:36:19.339Z,2.47
2017-12-31T06:38:45.986Z,2.10
2017-12-31T06:41:12.585Z,2.37
2017-12-31T06:43:39.185Z,1.40
2017-12-31T06:46:05.816Z,1.40
2017-12-31T06:48:32.409Z,0.90
2017-12-31T06:50:59.031Z,1.70
2017-12-31T06:53:25.790Z,1.00
2017-12-31T06:55:52.390Z,1.30
2017-12-31T06:58:18.985Z,0.83
2017-12-31T07:00:45.612Z,1.00
2017-12-31T07:03:12.214Z,1.87
2017-12-31T07:05:38.846Z,1.10
2017-12-31T07:08:05.465Z,1.40
2017-12-31T07:10:32.075Z,0.90
2017-12-31T07:12:58.698Z,1.40
2017-12-31T07:15:25.333Z,1.17
2017-12-31T07:17:51.954Z,1.20
2017-12-31T07:20:18.564Z,1.93
2017-12-31T07:22:45.178Z,1.30
2017-12-31T07:25:11.802Z,2.00
2017-12-31T07:27:38.425Z,0.70
2017-12-31T07:30:05.057Z,1.10
2017-12-31T07:32:31.673Z,0.80
2017-12-31T07:34:58.334Z,1.60
2017-12-31T07:37:24.938Z,1.50
2017-12-31T07:39:51.586Z,1.20
2017-12-31T07:42:18.209Z,3.10
2017-12-31T07:44:44.882Z,1.20
2017-12-31T07:47:11.694Z,1.50
2017-12-31T07:49:38.330Z,1.03
2017-12-31T07:52:04.929Z,1.40
2017-12-31T07:54:31.567Z,1.73
2017-12-31T07:56:58.229Z,1.33
2017-12-31T07:59:24.906Z,1.50
2017-12-31T08:01:51.514Z,1.80
2017-12-31T08:04:18.135Z,2.77
2017-12-31T08:06:44.757Z,1.30
2017-12-31T08:09:11.406Z,1.90
2017-12-31T08:11:37.999Z,1.30
2017-12-31T08:14:04.706Z,2.30
2017-12-31T08:16:31.325Z,1.87
2017-12-31T08:18:57.958Z,1.10
2017-12-31T08:21:24.594Z,1.00
2017-12-31T08:23:51.211Z,1.47
2017-12-31T08:26:17.826Z,0.90
2017-12-31T08:28:44.462Z,1.87
2017-12-31T08:31:11.072Z,1.50
2017-12-31T08:33:37.717Z,2.43
2017-12-31T08:36:04.454Z,2.07
2017-12-31T08:38:31.106Z,2.20
2017-12-31T08:40:57.730Z,1.60
2017-12-31T08:43:24.346Z,2.10
2017-12-31T08:45:50.950Z,1.73
2017-12-31T08:48:17.566Z,1.50
2017-12-31T08:50:44.203Z,1.47
2017-12-31T08:53:10.841Z,2.03
2017-12-31T08:55:37.435Z,1.20
2017-12-31T08:58:04.074Z,2.10
2017-12-31T09:00:30.705Z,2.80
2017-12-31T09:02:57.298Z,1.30
2017-12-31T09:05:23.929Z,1.10
2017-12-31T09:07:50.614Z,1.97
2017-12-31T09:10:17.254Z,1.60
2017-12-31T09:12:43.861Z,2.40
2017-12-31T09:15:10.504Z,2.20
2017-12-31T09:17:37.128Z,2.00
2017-12-31T09:20:03.734Z,1.63
2017-12-31T09:22:30.355Z,1.10
2017-12-31T09:24:56.978Z,1.03
2017-12-31T09:27:23.623Z,1.40
2017-12-31T09:29:50.233Z,1.33
2017-12-31T09:32:16.851Z,1.97
2017-12-31T09:34:43.495Z,1.10
2017-12-31T09:37:10.139Z,1.10
2017-12-31T09:39:36.842Z,0.97
2017-12-31T09:42:03.441Z,1.37
2017-12-31T09:44:30.081Z,1.93
2017-12-31T09:46:56.681Z,1.63
2017-12-31T09:49:23.331Z,2.10
2017-12-31T09:51:49.963Z,1.30
2017-12-31T09:54:16.563Z,1.23
2017-12-31T09:56:43.190Z,1.70
2017-12-31T09:59:09.830Z,1.40
2017-12-31T10:01:36.442Z,1.47
2017-12-31T10:04:03.083Z,1.63
2017-12-31T10:06:29.715Z,1.67
2017-12-31T10:08:56.323Z,1.53
2017-12-31T10:11:22.966Z,1.20
2017-12-31T10:13:49.785Z,1.30
2017-12-31T10:16:16.410Z,1.30
2017-12-31T10:18:43.056Z,2.07
2017-12-31T10:21:10.285Z,2.30
2017-12-31T10:23:36.907Z,2.80
2017-12-31T10:26:03.536Z,1.17
2017-12-31T10:28:30.165Z,1.80
2017-12-31T10:30:56.825Z,1.10
2017-12-31T10:33:23.506Z,1.30
2017-12-31T10:35:50.152Z,0.83
2017-12-31T10:38:16.758Z,1.50
2017-12-31T10:40:43.411Z,1.37
2017-12-31T10:43:10.024Z,1.30
2017-12-31T10:45:36.696Z,1.17
2017-12-31T10:48:03.339Z,2.50
2017-12-31T10:50:29.974Z,1.40
2017-12-31T10:52:57.186Z,1.40
2017-12-31T10:55:24.148Z,1.53
2017-12-31T10:57:50.851Z,2.73
2017-12-31T11:00:17.461Z,1.17
2017-12-31T11:02:44.166Z,1.50
2017-12-31T11:05:10.899Z,1.47
2017-12-31T11:07:37.544Z,1.33
2017-12-31T11:10:04.158Z,1.00
2017-12-31T11:12:30.796Z,1.10
2017-12-31T11:14:57.415Z,1.17
2017-12-31T11:17:24.251Z,1.30
2017-12-31T11:19:50.861Z,1.97
2017-12-31T11:22:17.468Z,1.30
2017-12-31T11:24:44.138Z,1.90
2017-12-31T11:27:10.759Z,1.43
2017-12-31T11:29:37.380Z,1.27
2017-12-31T11:32:04.021Z,1.80
2017-12-31T11:34:30.668Z,2.30
2017-12-31T11:36:57.332Z,1.17
2017-12-31T11:39:23.947Z,1.80
2017-12-31T11:41:50.598Z,1.60
2017-12-31T11:44:17.223Z,1.10
2017-12-31T11:46:44.360Z,2.40
2017-12-31T11:49:10.983Z,1.40
2017-12-31T11:51:37.652Z,1.63
2017-12-31T11:54:04.352Z,1.73
2017-12-31T11:56:30.910Z,1.00
2017-12-31T11:58:57.548Z,1.17
2017-12-31T12:01:24.171Z,1.47
2017-12-31T12:03:50.832Z,1.57
2017-12-31T12:06:17.479Z,1.10
2017-12-31T12:08:44.102Z,2.07
2017-12-31T12:11:10.756Z,1.30
2017-12-31T12:13:37.403Z,1.27
2017-12-31T12:16:04.018Z,1.57
2017-12-31T12:18:30.660Z,2.13
2017-12-31T12:20:57.296Z,1.40
2017-12-31T12:23:23.923Z,1.17
2017-12-31T12:25:50.569Z,0.90
2017-12-31T12:28:17.214Z,0.93
2017-12-31T12:30:43.861Z,1.40
2017-12-31T12:33:10.469Z,1.17
2017-12-31T12:35:37.108Z,1.47
2017-12-31T12:38:03.729Z,2.23
2017-12-31T12:40:30.379Z,2.47
2017-12-31T12:42:56.983Z,1.27
2017-12-31T12:45:23.627Z,0.97
2017-12-31T12:47:50.268Z,1.70
2017-12-31T12:50:17.080Z,0.83
2017-12-31T12:52:43.706Z,1.20
2017-12-31T12:55:10.342Z,1.20
2017-12-31T12:57:36.998Z,1.57
2017-12-31T13:00:03.635Z,1.20
2017-12-31T13:02:30.318Z,1.43
2017-12-31T13:04:56.976Z,0.80
2017-12-31T13:07:23.606Z,1.70
2017-12-31T13:09:50.280Z,1.20
2017-12-31T13:12:16.892Z,1.17
2017-12-31T13:14:43.645Z,0.97
2017-12-31T13:17:10.260Z,1.13
2017-12-31T13:19:36.969Z,1.00
2017-12-31T13:22:03.602Z,1.30
2017-12-31T13:24:30.232Z,1.50
2017-12-31T13:26:56.974Z,1.20
2017-12-31T13:29:23.589Z,1.10
2017-12-31T13:31:50.242Z,1.00
2017-12-31T13:34:16.873Z,1.00
2017-12-31T13:36:43.515Z,0.97
2017-12-31T13:39:10.125Z,1.20
2017-12-31T13:41:36.790Z,1.40
2017-12-31T13:44:03.410Z,1.17
2017-12-31T13:46:30.064Z,1.87
2017-12-31T13:48:56.719Z,0.93
2017-12-31T13:51:23.366Z,1.77
2017-12-31T13:53:50.043Z,2.07
2017-12-31T13:56:16.666Z,1.10
2017-12-31T13:58:43.327Z,1.10
2017-12-31T14:01:09.962Z,1.17
2017-12-31T14:03:36.570Z,1.17
2017-12-31T14:06:03.194Z,1.20
2017-12-31T14:08:29.833Z,1.00
2017-12-31T14:10:56.496Z,2.10
2017-12-31T14:13:23.091Z,1.73
2017-12-31T14:15:49.730Z,1.73
2017-12-31T14:18:16.374Z,1.10
2017-12-31T14:20:42.996Z,1.43
2017-12-31T14:23:09.604Z,1.70
2017-12-31T14:25:36.256Z,0.93
2017-12-31T14:28:02.880Z,1.20
2017-12-31T14:30:29.502Z,0.83
2017-12-31T14:32:56.115Z,1.20
2017-12-31T14:35:22.893Z,1.23
2017-12-31T14:37:49.516Z,1.07
2017-12-31T14:40:16.184Z,1.50
2017-12-31T14:42:42.907Z,1.13
2017-12-31T14:45:09.604Z,1.20
2017-12-31T14:47:37.134Z,1.30
2017-12-31T14:50:03.769Z,1.63
2017-12-31T14:52:30.371Z,0.80
2017-12-31T14:54:57.004Z,1.03
2017-12-31T14:57:23.624Z,1.20
2017-12-31T14:59:50.319Z,0.87
2017-12-31T15:02:17.075Z,1.13
2017-12-31T15:04:43.797Z,1.30
2017-12-31T15:07:10.449Z,2.97
2017-12-31T15:09:37.128Z,1.33
2017-12-31T15:12:03.770Z,0.90
2017-12-31T15:14:30.969Z,1.33
2017-12-31T15:16:57.598Z,1.40
2017-12-31T15:19:24.250Z,0.97
2017-12-31T15:21:50.888Z,1.27
2017-12-31T15:24:17.501Z,1.00
2017-12-31T15:26:44.304Z,1.20
2017-12-31T15:29:10.905Z,0.80
2017-12-31T15:31:37.525Z,1.17
2017-12-31T15:34:04.173Z,1.70
2017-12-31T15:36:30.799Z,1.20
2017-12-31T15:38:57.509Z,0.90
2017-12-31T15:41:24.138Z,1.23
2017-12-31T15:43:50.769Z,1.20
2017-12-31T15:46:17.432Z,1.53
2017-12-31T15:48:44.058Z,0.90
2017-12-31T15:51:10.689Z,1.20
2017-12-31T15:53:37.343Z,0.90
2017-12-31T15:56:04.023Z,1.00
2017-12-31T15:58:30.632Z,0.93
2017-12-31T16:00:57.279Z,0.90
2017-12-31T16:03:23.895Z,1.13
2017-12-31T16:05:50.537Z,1.60
2017-12-31T16:08:17.173Z,1.30
2017-12-31T16:10:43.826Z,2.40
2017-12-31T16:13:10.479Z,0.90
2017-12-31T16:15:37.139Z,1.10
2017-12-31T16:18:03.824Z,0.77
2017-12-31T16:20:30.467Z,0.80
2017-12-31T16:22:57.115Z,1.13
2017-12-31T16:25:23.746Z,1.40
2017-12-31T16:27:50.391Z,1.47
2017-12-31T16:30:17.042Z,0.90
2017-12-31T16:32:43.675Z,1.23
2017-12-31T16:35:10.342Z,0.90
2017-12-31T16:37:36.957Z,2.53
2017-12-31T16:40:03.568Z,0.90
2017-12-31T16:42:30.206Z,1.73
2017-12-31T16:44:56.877Z,2.03
2017-12-31T16:47:23.590Z,1.90
2017-12-31T16:49:50.215Z,1.90
2017-12-31T16:52:16.850Z,1.40
2017-12-31T16:54:43.502Z,1.50
2017-12-31T16:57:10.099Z,1.70
2017-12-31T16:59:36.739Z,1.30
2017-12-31T17:02:03.363Z,1.77
2017-12-31T17:04:30.006Z,1.60
2017-12-31T17:06:56.765Z,0.97
2017-12-31T17:09:23.418Z,1.13
2017-12-31T17:11:50.029Z,1.47
2017-12-31T17:14:16.682Z,2.03
2017-12-31T17:16:43.288Z,1.00
2017-12-31T17:19:09.922Z,1.40
2017-12-31T17:21:36.815Z,1.23
2017-12-31T17:24:03.430Z,1.20
2017-12-31T17:26:30.034Z,1.60
2017-12-31T17:28:56.701Z,1.40
2017-12-31T17:31:23.296Z,1.20
2017-12-31T17:33:49.962Z,1.30
2017-12-31T17:36:16.595Z,1.40
2017-12-31T17:38:43.219Z,1.57
2017-12-31T17:41:09.851Z,1.07
2017-12-31T17:43:36.505Z,1.33
2017-12-31T17:46:03.098Z,1.17
2017-12-31T17:48:29.736Z,1.43
2017-12-31T17:50:56.350Z,1.33
2017-12-31T17:53:22.974Z,1.87
2017-12-31T17:55:49.627Z,1.53
2017-12-31T17:58:16.240Z,1.67
2017-12-31T18:00:42.861Z,0.77
2017-12-31T18:03:09.547Z,2.07
2017-12-31T18:05:36.128Z,1.90
2017-12-31T18:08:02.767Z,1.30
2017-12-31T18:10:29.384Z,1.23
2017-12-31T18:12:56.031Z,1.43
2017-12-31T18:15:22.639Z,1.10
2017-12-31T18:17:49.291Z,1.50
2017-12-31T18:20:15.962Z,1.93
2017-12-31T18:22:42.617Z,1.70
2017-12-31T18:25:09.244Z,2.33
2017-12-31T18:27:36.511Z,1.73
2017-12-31T18:30:03.118Z,1.10
2017-12-31T18:32:29.755Z,1.33
2017-12-31T18:34:56.366Z,1.30
2017-12-31T18:37:23.637Z,1.40
2017-12-31T18:39:50.259Z,1.50
2017-12-31T18:42:16.859Z,1.50
2017-12-31T18:44:43.520Z,1.47
2017-12-31T18:47:10.130Z,1.10
2017-12-31T18:49:36.835Z,1.57
2017-12-31T18:52:03.451Z,1.00
2017-12-31T18:54:30.088Z,1.07
2017-12-31T18:56:56.739Z,1.60
2017-12-31T18:59:23.375Z,1.20
2017-12-31T19:01:50.019Z,1.17
2017-12-31T19:04:16.639Z,1.43
2017-12-31T19:06:43.240Z,1.10
2017-12-31T19:09:09.884Z,0.80
2017-12-31T19:11:36.572Z,1.10
2017-12-31T19:14:03.181Z,1.10
2017-12-31T19:16:29.839Z,1.20
2017-12-31T19:18:56.462Z,0.70
2017-12-31T19:21:23.082Z,1.37
2017-12-31T19:23:49.741Z,1.53
2017-12-31T19:26:16.401Z,0.90
2017-12-31T19:28:42.998Z,0.93
2017-12-31T19:31:09.824Z,1.00
2017-12-31T19:33:36.473Z,1.03
2017-12-31T19:36:03.094Z,1.03
2017-12-31T19:38:29.743Z,1.57
2017-12-31T19:40:56.361Z,1.03
2017-12-31T19:43:22.965Z,1.23
2017-12-31T19:45:49.617Z,1.20
2017-12-31T19:48:16.239Z,1.17
2017-12-31T19:50:42.851Z,4.73
2017-12-31T19:53:09.494Z,4.10
2017-12-31T19:55:36.162Z,3.33
2017-12-31T19:58:02.847Z,2.80
2017-12-31T20:00:29.478Z,1.90
2017-12-31T20:02:56.098Z,1.80
2017-12-31T20:05:22.752Z,1.50
2017-12-31T20:07:49.416Z,1.77
2017-12-31T20:10:16.018Z,1.00
2017-12-31T20:12:42.783Z,1.30
2017-12-31T20:15:09.420Z,1.90
2017-12-31T20:17:36.050Z,1.37
2017-12-31T20:20:02.679Z,1.60
2017-12-31T20:22:29.296Z,2.50
2017-12-31T20:24:55.959Z,1.83
2017-12-31T20:27:22.552Z,1.90
2017-12-31T20:29:49.195Z,1.50
2017-12-31T20:32:15.872Z,1.50
2017-12-31T20:34:42.494Z,2.40
2017-12-31T20:37:09.127Z,1.93
2017-12-31T20:39:35.783Z,3.90
2017-12-31T20:42:02.375Z,1.87
2017-12-31T20:44:29.060Z,1.50
2017-12-31T20:46:55.696Z,1.60
2017-12-31T20:49:22.307Z,2.50
2017-12-31T20:51:48.959Z,2.53
2017-12-31T20:54:15.574Z,2.13
2017-12-31T20:56:42.188Z,2.03
2017-12-31T20:59:08.823Z,1.80
2017-12-31T21:01:35.434Z,2.10
2017-12-31T21:04:02.100Z,1.20
2017-12-31T21:06:28.711Z,1.60
2017-12-31T21:08:55.364Z,1.50
2017-12-31T21:11:21.973Z,2.00
2017-12-31T21:13:48.582Z,2.10
2017-12-31T21:16:15.257Z,2.47
2017-12-31T21:18:42.552Z,2.40
2017-12-31T21:21:09.196Z,0.97
2017-12-31T21:23:35.836Z,1.00
2017-12-31T21:26:02.429Z,0.97
2017-12-31T21:28:29.108Z,1.30
2017-12-31T21:30:55.711Z,1.07
2017-12-31T21:33:22.339Z,0.90
2017-12-31T21:35:49.057Z,1.93
2017-12-31T21:38:15.687Z,2.27
2017-12-31T21:40:42.335Z,2.17
2017-12-31T21:43:09.003Z,1.77
2017-12-31T21:45:35.610Z,1.97
2017-12-31T21:48:02.212Z,1.43
2017-12-31T21:50:28.893Z,1.33
2017-12-31T21:52:55.506Z,1.40
2017-12-31T21:55:22.162Z,1.50
2017-12-31T21:57:48.782Z,1.10
2017-12-31T22:00:15.423Z,1.43
2017-12-31T22:02:42.078Z,1.93
2017-12-31T22:05:08.697Z,4.20
2017-12-31T22:07:35.349Z,2.00
2017-12-31T22:10:01.967Z,1.73
2017-12-31T22:12:28.632Z,2.13
2017-12-31T22:14:55.271Z,1.33
2017-12-31T22:17:21.969Z,1.83
2017-12-31T22:19:48.586Z,1.97
2017-12-31T22:22:15.226Z,1.50
2017-12-31T22:24:41.844Z,1.17
2017-12-31T22:27:08.494Z,1.60
2017-12-31T22:29:35.834Z,2.07
2017-12-31T22:32:02.471Z,1.30
2017-12-31T22:34:29.139Z,1.33
2017-12-31T22:36:55.767Z,1.10
2017-12-31T22:39:22.420Z,5.93
2017-12-31T22:41:49.053Z,1.90
2017-12-31T22:44:15.689Z,1.80
2017-12-31T22:46:42.383Z,1.40
2017-12-31T22:49:08.978Z,1.10
2017-12-31T22:51:35.654Z,5.43
2017-12-31T22:54:02.278Z,2.90
2017-12-31T22:56:28.884Z,1.97
2017-12-31T22:58:55.525Z,9.13
2017-12-31T23:01:22.185Z,41.97
2017-12-31T23:03:49.698Z,27.40
2017-12-31T23:06:16.321Z,66.50
2017-12-31T23:08:43.205Z,32.77
2017-12-31T23:11:09.848Z,29.90
2017-12-31T23:13:36.511Z,28.33
2017-12-31T23:16:03.186Z,31.07
2017-12-31T23:18:29.814Z,19.50
2017-12-31T23:20:56.519Z,16.27
2017-12-31T23:23:23.186Z,14.80
2017-12-31T23:25:49.831Z,9.30
2017-12-31T23:28:16.445Z,9.83
2017-12-31T23:30:43.094Z,10.00
2017-12-31T23:33:09.721Z,7.60
2017-12-31T23:35:36.379Z,4.83
2017-12-31T23:38:03.003Z,3.90
2017-12-31T23:40:29.634Z,4.00
2017-12-31T23:42:56.278Z,3.33
2017-12-31T23:45:22.904Z,11.20
2017-12-31T23:47:49.594Z,4.80
2017-12-31T23:50:16.207Z,3.30
2017-12-31T23:52:42.836Z,2.40
2017-12-31T23:55:09.512Z,1.63
2017-12-31T23:57:36.099Z,2.93
